createdAt,value
2023-02-09T00:00:27.469Z,25.25
2023-02-09T00:01:27.458Z,24.85
2023-02-09T00:02:27.507Z,23.66
2023-02-09T00:03:27.467Z,24.25
2023-02-09T00:04:27.431Z,24.65
2023-02-09T00:05:27.427Z,24.25
2023-02-09T00:06:27.412Z,24.85
2023-02-09T00:07:27.382Z,24.06
2023-02-09T00:08:27.371Z,23.66
2023-02-09T00:09:27.375Z,24.45
2023-02-09T00:10:27.372Z,24.85
2023-02-09T00:11:27.352Z,24.06
2023-02-09T00:12:27.343Z,24.45
2023-02-09T00:13:27.335Z,20.48
2023-02-09T00:14:27.322Z,24.65
2023-02-09T00:15:27.331Z,24.25
2023-02-09T00:16:27.385Z,24.65
2023-02-09T00:17:27.279Z,24.45
2023-02-09T00:18:27.272Z,23.46
2023-02-09T00:19:27.273Z,23.06
2023-02-09T00:20:27.280Z,24.06
2023-02-09T00:21:27.270Z,23.26
2023-02-09T00:22:27.230Z,22.47
2023-02-09T00:23:27.222Z,24.45
2023-02-09T00:24:27.219Z,24.25
2023-02-09T00:25:27.209Z,24.06
2023-02-09T00:26:27.220Z,23.66
2023-02-09T00:27:27.189Z,24.25
2023-02-09T00:28:27.356Z,24.25
2023-02-09T00:29:27.158Z,24.06
2023-02-09T00:30:27.169Z,24.85
2023-02-09T00:31:27.187Z,24.85
2023-02-09T00:32:27.134Z,24.45
2023-02-09T00:33:27.125Z,25.05
2023-02-09T00:34:27.116Z,23.86
2023-02-09T00:35:27.125Z,24.06
2023-02-09T00:36:27.085Z,23.06
2023-02-09T00:37:27.174Z,23.86
2023-02-09T00:38:27.077Z,23.66
2023-02-09T00:39:27.059Z,23.86
2023-02-09T00:40:27.079Z,23.86
2023-02-09T00:41:27.038Z,25.25
2023-02-09T00:42:27.035Z,23.86
2023-02-09T00:43:27.023Z,24.25
2023-02-09T00:44:27.015Z,24.25
2023-02-09T00:45:27.017Z,24.06
2023-02-09T00:46:27.004Z,22.27
2023-02-09T00:47:26.989Z,24.65
2023-02-09T00:48:26.996Z,24.45
2023-02-09T00:49:26.955Z,24.06
2023-02-09T00:50:27.067Z,24.45
2023-02-09T00:51:26.953Z,23.26
2023-02-09T00:52:26.943Z,24.06
2023-02-09T00:53:26.924Z,24.65
2023-02-09T00:54:26.922Z,24.25
2023-02-09T00:55:26.905Z,23.26
2023-02-09T00:56:26.900Z,24.25
2023-02-09T00:57:26.889Z,21.67
2023-02-09T00:58:26.885Z,24.06
2023-02-09T00:59:26.880Z,23.86
2023-02-09T01:00:26.858Z,23.86
2023-02-09T01:01:26.876Z,24.25
2023-02-09T01:02:26.833Z,23.06
2023-02-09T01:03:26.819Z,23.46
2023-02-09T01:04:26.927Z,24.25
2023-02-09T01:05:26.807Z,23.86
2023-02-09T01:06:26.787Z,24.06
2023-02-09T01:07:26.776Z,24.65
2023-02-09T01:08:26.767Z,23.06
2023-02-09T01:09:26.759Z,24.06
2023-02-09T01:10:26.757Z,25.25
2023-02-09T01:11:26.741Z,23.86
2023-02-09T01:12:26.724Z,24.45
2023-02-09T01:13:26.703Z,25.65
2023-02-09T01:14:26.705Z,24.25
2023-02-09T01:15:26.695Z,25.05
2023-02-09T01:16:26.709Z,24.45
2023-02-09T01:17:26.670Z,25.05
2023-02-09T01:18:26.663Z,23.46
2023-02-09T01:19:26.653Z,24.85
2023-02-09T01:20:26.646Z,23.66
2023-02-09T01:21:26.653Z,24.25
2023-02-09T01:22:26.639Z,24.65
2023-02-09T01:23:26.611Z,24.45
2023-02-09T01:24:26.602Z,24.25
2023-02-09T01:25:26.590Z,24.06
2023-02-09T01:26:26.603Z,24.06
2023-02-09T01:27:26.568Z,24.06
2023-02-09T01:28:26.605Z,24.25
2023-02-09T01:29:26.550Z,24.45
2023-02-09T01:30:26.570Z,24.45
2023-02-09T01:31:26.704Z,24.06
2023-02-09T01:32:26.530Z,25.84
2023-02-09T01:33:26.512Z,24.45
2023-02-09T01:34:26.519Z,24.06
2023-02-09T01:35:26.488Z,24.25
2023-02-09T01:36:26.490Z,24.65
2023-02-09T01:37:26.478Z,24.06
2023-02-09T01:38:26.467Z,24.06
2023-02-09T01:39:26.451Z,24.06
2023-02-09T01:40:26.457Z,24.25
2023-02-09T01:41:26.442Z,24.45
2023-02-09T01:42:26.431Z,24.06
2023-02-09T01:43:26.421Z,25.25
2023-02-09T01:44:26.402Z,23.46
2023-02-09T01:45:26.391Z,23.06
2023-02-09T01:46:26.475Z,23.86
2023-02-09T01:47:26.368Z,24.06
2023-02-09T01:48:26.363Z,23.66
2023-02-09T01:49:26.367Z,24.06
2023-02-09T01:50:26.354Z,24.25
2023-02-09T01:51:26.339Z,24.85
2023-02-09T01:52:26.329Z,25.65
2023-02-09T01:53:26.317Z,24.25
2023-02-09T01:54:26.330Z,23.26
2023-02-09T01:55:26.293Z,24.45
2023-02-09T01:56:26.330Z,24.06
2023-02-09T01:57:26.307Z,23.66
2023-02-09T01:58:26.285Z,23.86
2023-02-09T01:59:26.279Z,24.25
2023-02-09T02:00:26.248Z,23.66
2023-02-09T02:01:26.246Z,24.45
2023-02-09T02:02:26.234Z,23.46
2023-02-09T02:03:26.207Z,24.06
2023-02-09T02:04:26.217Z,20.28
2023-02-09T02:05:26.187Z,20.08
2023-02-09T02:06:26.239Z,23.26
2023-02-09T02:07:26.167Z,24.25
2023-02-09T02:08:26.170Z,23.66
2023-02-09T02:09:26.155Z,22.66
2023-02-09T02:10:26.150Z,24.85
2023-02-09T02:11:26.148Z,23.06
2023-02-09T02:12:26.131Z,24.06
2023-02-09T02:13:26.104Z,23.86
2023-02-09T02:14:26.111Z,23.86
2023-02-09T02:15:26.144Z,24.25
2023-02-09T02:16:26.185Z,23.26
2023-02-09T02:17:26.069Z,23.86
2023-02-09T02:18:26.064Z,24.25
2023-02-09T02:19:26.051Z,24.25
2023-02-09T02:20:26.037Z,23.86
2023-02-09T02:21:26.081Z,24.65
2023-02-09T02:22:26.017Z,24.25
2023-02-09T02:23:26.013Z,24.06
2023-02-09T02:24:25.988Z,23.26
2023-02-09T02:25:25.977Z,23.26
2023-02-09T02:26:26.033Z,25.45
2023-02-09T02:27:25.966Z,25.25
2023-02-09T02:28:25.981Z,22.86
2023-02-09T02:29:25.947Z,23.46
2023-02-09T02:30:25.942Z,24.45
2023-02-09T02:31:26.112Z,23.06
2023-02-09T02:32:25.965Z,23.06
2023-02-09T02:33:25.906Z,24.25
2023-02-09T02:34:25.896Z,23.46
2023-02-09T02:35:25.882Z,24.45
2023-02-09T02:36:25.979Z,23.86
2023-02-09T02:37:25.861Z,23.86
2023-02-09T02:38:25.853Z,24.45
2023-02-09T02:39:25.852Z,24.65
2023-02-09T02:40:25.841Z,23.46
2023-02-09T02:41:25.852Z,23.66
2023-02-09T02:42:25.819Z,23.46
2023-02-09T02:43:25.805Z,23.46
2023-02-09T02:44:25.792Z,23.86
2023-02-09T02:45:25.792Z,23.86
2023-02-09T02:46:25.831Z,25.05
2023-02-09T02:47:25.770Z,23.66
2023-02-09T02:48:25.798Z,24.25
2023-02-09T02:49:25.743Z,24.06
2023-02-09T02:50:25.760Z,23.26
2023-02-09T02:51:25.730Z,23.66
2023-02-09T02:52:25.725Z,24.45
2023-02-09T02:53:25.711Z,24.06
2023-02-09T02:54:25.710Z,23.86
2023-02-09T02:55:25.686Z,23.46
2023-02-09T02:56:25.692Z,24.45
2023-02-09T02:57:25.675Z,24.06
2023-02-09T02:58:25.667Z,24.06
2023-02-09T02:59:25.654Z,23.86
2023-02-09T03:00:25.669Z,23.86
2023-02-09T03:01:25.693Z,23.86
2023-02-09T03:02:25.646Z,23.86
2023-02-09T03:03:25.623Z,23.86
2023-02-09T03:04:25.627Z,23.26
2023-02-09T03:05:25.694Z,25.25
2023-02-09T03:06:25.604Z,23.66
2023-02-09T03:07:25.596Z,23.86
2023-02-09T03:08:25.578Z,23.06
2023-02-09T03:09:25.576Z,23.66
2023-02-09T03:10:25.563Z,23.46
2023-02-09T03:11:25.552Z,24.45
2023-02-09T03:12:25.551Z,23.66
2023-02-09T03:13:25.524Z,22.86
2023-02-09T03:14:25.545Z,23.26
2023-02-09T03:15:25.493Z,24.25
2023-02-09T03:16:25.547Z,24.06
2023-02-09T03:17:25.557Z,23.66
2023-02-09T03:18:25.480Z,24.45
2023-02-09T03:19:25.453Z,23.66
2023-02-09T03:20:25.478Z,23.86
2023-02-09T03:21:25.441Z,24.45
2023-02-09T03:22:25.449Z,24.06
2023-02-09T03:23:25.452Z,24.06
2023-02-09T03:24:25.411Z,24.25
2023-02-09T03:25:25.404Z,23.26
2023-02-09T03:26:25.402Z,23.46
2023-02-09T03:27:25.413Z,24.06
2023-02-09T03:28:25.416Z,23.86
2023-02-09T03:29:25.372Z,24.25
2023-02-09T03:30:25.389Z,23.86
2023-02-09T03:31:25.481Z,24.25
2023-02-09T03:32:25.348Z,24.25
2023-02-09T03:33:25.330Z,23.26
2023-02-09T03:34:25.318Z,23.86
2023-02-09T03:35:25.309Z,23.66
2023-02-09T03:36:25.288Z,24.25
2023-02-09T03:37:25.296Z,23.46
2023-02-09T03:38:25.287Z,23.46
2023-02-09T03:39:25.280Z,23.66
2023-02-09T03:40:25.261Z,23.26
2023-02-09T03:41:25.272Z,23.86
2023-02-09T03:42:25.232Z,23.66
2023-02-09T03:43:25.246Z,23.66
2023-02-09T03:44:25.218Z,22.47
2023-02-09T03:45:25.216Z,23.66
2023-02-09T03:46:25.271Z,24.06
2023-02-09T03:47:25.187Z,23.86
2023-02-09T03:48:25.195Z,23.26
2023-02-09T03:49:25.174Z,22.07
2023-02-09T03:50:25.158Z,23.66
2023-02-09T03:51:25.145Z,24.06
2023-02-09T03:52:25.166Z,23.66
2023-02-09T03:53:25.142Z,23.66
2023-02-09T03:54:25.123Z,23.86
2023-02-09T03:55:25.122Z,24.45
2023-02-09T03:56:25.134Z,23.46
2023-02-09T03:57:25.085Z,23.86
2023-02-09T03:58:25.080Z,24.25
2023-02-09T03:59:25.081Z,24.85
2023-02-09T04:00:25.085Z,23.86
2023-02-09T04:01:25.129Z,23.26
2023-02-09T04:02:25.101Z,23.66
2023-02-09T04:03:25.040Z,23.26
2023-02-09T04:04:25.017Z,23.06
2023-02-09T04:05:25.018Z,23.46
2023-02-09T04:06:25.029Z,22.86
2023-02-09T04:07:24.999Z,23.26
2023-02-09T04:08:25.007Z,23.26
2023-02-09T04:09:24.967Z,23.66
2023-02-09T04:10:24.953Z,22.66
2023-02-09T04:11:24.958Z,23.26
2023-02-09T04:12:24.945Z,24.06
2023-02-09T04:13:24.937Z,24.06
2023-02-09T04:14:24.945Z,23.66
2023-02-09T04:15:24.905Z,23.86
2023-02-09T04:16:24.922Z,23.06
2023-02-09T04:17:25.012Z,24.06
2023-02-09T04:18:24.908Z,23.06
2023-02-09T04:19:24.869Z,22.86
2023-02-09T04:20:24.853Z,23.06
2023-02-09T04:21:24.845Z,24.06
2023-02-09T04:22:24.843Z,23.66
2023-02-09T04:23:24.836Z,24.65
2023-02-09T04:24:24.824Z,23.26
2023-02-09T04:25:25.010Z,23.26
2023-02-09T04:26:24.800Z,23.26
2023-02-09T04:27:24.781Z,23.06
2023-02-09T04:28:24.821Z,24.45
2023-02-09T04:29:24.791Z,23.66
2023-02-09T04:30:24.804Z,23.26
2023-02-09T04:31:24.848Z,23.66
2023-02-09T04:32:24.734Z,23.86
2023-02-09T04:33:24.764Z,23.46
2023-02-09T04:34:24.739Z,23.46
2023-02-09T04:35:24.722Z,23.86
2023-02-09T04:36:24.699Z,23.46
2023-02-09T04:37:24.702Z,23.46
2023-02-09T04:38:24.676Z,23.06
2023-02-09T04:39:24.712Z,23.26
2023-02-09T04:40:24.664Z,22.86
2023-02-09T04:41:24.664Z,23.86
2023-02-09T04:42:24.636Z,24.06
2023-02-09T04:43:24.662Z,23.66
2023-02-09T04:44:24.685Z,24.85
2023-02-09T04:45:24.612Z,23.06
2023-02-09T04:46:24.606Z,23.66
2023-02-09T04:47:24.601Z,23.86
2023-02-09T04:48:24.597Z,24.85
2023-02-09T04:49:24.624Z,22.66
2023-02-09T04:50:24.585Z,23.46
2023-02-09T04:51:24.568Z,23.06
2023-02-09T04:52:24.553Z,23.46
2023-02-09T04:53:24.546Z,23.06
2023-02-09T04:54:24.532Z,23.06
2023-02-09T04:55:24.523Z,22.27
2023-02-09T04:56:24.520Z,23.46
2023-02-09T04:57:24.500Z,22.07
2023-02-09T04:58:24.489Z,23.26
2023-02-09T04:59:24.480Z,23.46
2023-02-09T05:00:24.487Z,23.66
2023-02-09T05:01:24.586Z,23.66
2023-02-09T05:02:24.441Z,23.66
2023-02-09T05:03:24.833Z,23.26
2023-02-09T05:04:24.429Z,22.07
2023-02-09T05:05:24.423Z,23.06
2023-02-09T05:06:24.411Z,23.46
2023-02-09T05:07:24.399Z,22.47
2023-02-09T05:08:24.389Z,21.47
2023-02-09T05:09:24.408Z,22.07
2023-02-09T05:10:24.370Z,23.06
2023-02-09T05:11:25.645Z,23.26
2023-02-09T05:12:24.376Z,24.45
2023-02-09T05:13:24.381Z,23.26
2023-02-09T05:14:24.363Z,23.26
2023-02-09T05:15:24.317Z,23.06
2023-02-09T05:16:24.361Z,22.07
2023-02-09T05:17:24.298Z,23.26
2023-02-09T05:18:24.301Z,22.66
2023-02-09T05:19:24.299Z,23.26
2023-02-09T05:20:24.268Z,22.07
2023-02-09T05:21:24.288Z,22.27
2023-02-09T05:22:24.278Z,23.26
2023-02-09T05:23:24.278Z,22.86
2023-02-09T05:24:24.243Z,22.86
2023-02-09T05:25:24.256Z,23.26
2023-02-09T05:26:24.211Z,23.86
2023-02-09T05:27:24.221Z,23.46
2023-02-09T05:28:24.246Z,22.07
2023-02-09T05:29:24.190Z,23.26
2023-02-09T05:30:24.192Z,23.06
2023-02-09T05:31:24.324Z,23.06
2023-02-09T05:32:24.189Z,22.27
2023-02-09T05:33:24.143Z,24.06
2023-02-09T05:34:24.152Z,23.46
2023-02-09T05:35:24.117Z,23.46
2023-02-09T05:36:24.141Z,23.46
2023-02-09T05:37:24.120Z,22.27
2023-02-09T05:38:24.118Z,23.26
2023-02-09T05:39:24.097Z,22.07
2023-02-09T05:40:24.073Z,24.65
2023-02-09T05:41:24.062Z,22.66
2023-02-09T05:42:24.048Z,23.46
2023-02-09T05:43:24.072Z,23.26
2023-02-09T05:44:24.032Z,23.46
2023-02-09T05:45:24.030Z,22.27
2023-02-09T05:46:24.072Z,23.86
2023-02-09T05:47:24.004Z,23.66
2023-02-09T05:48:24.031Z,23.66
2023-02-09T05:49:24.032Z,22.47
2023-02-09T05:50:23.960Z,22.27
2023-02-09T05:51:23.963Z,22.27
2023-02-09T05:52:23.952Z,23.06
2023-02-09T05:53:23.937Z,23.06
2023-02-09T05:54:23.931Z,22.66
2023-02-09T05:55:23.917Z,22.47
2023-02-09T05:56:23.926Z,21.47
2023-02-09T05:57:23.906Z,23.26
2023-02-09T05:58:23.885Z,22.47
2023-02-09T05:59:23.898Z,22.07
2023-02-09T06:00:23.877Z,23.26
2023-02-09T06:01:23.871Z,23.26
2023-02-09T06:02:23.944Z,24.06
2023-02-09T06:03:23.867Z,22.86
2023-02-09T06:04:23.833Z,22.27
2023-02-09T06:05:23.829Z,22.86
2023-02-09T06:06:23.851Z,21.47
2023-02-09T06:07:23.807Z,22.66
2023-02-09T06:08:23.792Z,23.06
2023-02-09T06:09:23.826Z,22.86
2023-02-09T06:10:23.761Z,21.67
2023-02-09T06:11:23.766Z,22.27
2023-02-09T06:12:23.753Z,22.66
2023-02-09T06:13:23.747Z,22.86
2023-02-09T06:14:23.676Z,23.86
2023-02-09T06:15:23.794Z,23.26
2023-02-09T06:16:23.766Z,23.26
2023-02-09T06:17:23.701Z,22.66
2023-02-09T06:18:23.649Z,24.06
2023-02-09T06:19:23.628Z,22.27
2023-02-09T06:20:23.676Z,24.85
2023-02-09T06:21:23.676Z,22.86
2023-02-09T06:22:23.609Z,24.25
2023-02-09T06:23:23.587Z,23.06
2023-02-09T06:24:23.567Z,24.25
2023-02-09T06:25:23.588Z,24.45
2023-02-09T06:26:23.547Z,23.26
2023-02-09T06:27:23.538Z,21.87
2023-02-09T06:28:23.543Z,23.26
2023-02-09T06:29:23.538Z,23.06
2023-02-09T06:30:23.527Z,22.86
2023-02-09T06:31:23.602Z,23.46
2023-02-09T06:32:23.501Z,22.86
2023-02-09T06:33:23.489Z,22.86
2023-02-09T06:34:23.493Z,22.86
2023-02-09T06:35:23.489Z,23.26
2023-02-09T06:36:23.456Z,24.06
2023-02-09T06:37:23.469Z,23.06
2023-02-09T06:38:23.436Z,21.87
2023-02-09T06:39:23.439Z,23.26
2023-02-09T06:40:23.417Z,23.06
2023-02-09T06:41:23.430Z,22.47
2023-02-09T06:42:23.476Z,23.26
2023-02-09T06:43:23.385Z,23.26
2023-02-09T06:44:23.366Z,22.86
2023-02-09T06:45:23.382Z,22.47
2023-02-09T06:46:23.494Z,22.66
2023-02-09T06:47:23.357Z,23.66
2023-02-09T06:48:23.337Z,24.45
2023-02-09T06:49:23.325Z,21.87
2023-02-09T06:50:23.378Z,22.66
2023-02-09T06:51:23.309Z,23.46
2023-02-09T06:52:23.326Z,21.67
2023-02-09T06:53:23.293Z,23.66
2023-02-09T06:54:23.284Z,22.07
2023-02-09T06:55:23.290Z,23.46
2023-02-09T06:56:23.258Z,22.27
2023-02-09T06:57:23.248Z,22.86
2023-02-09T06:58:23.270Z,23.46
2023-02-09T06:59:23.290Z,18.29
2023-02-09T07:00:23.213Z,22.27
2023-02-09T07:01:23.274Z,22.66
2023-02-09T07:02:23.214Z,22.66
2023-02-09T07:03:23.226Z,23.06
2023-02-09T07:04:23.192Z,22.07
2023-02-09T07:05:23.192Z,21.87
2023-02-09T07:06:23.160Z,21.27
2023-02-09T07:07:25.346Z,22.07
2023-02-09T07:08:23.143Z,22.07
2023-02-09T07:09:23.132Z,21.47
2023-02-09T07:10:23.134Z,23.06
2023-02-09T07:11:23.123Z,20.87
2023-02-09T07:12:23.101Z,21.67
2023-02-09T07:13:23.158Z,22.86
2023-02-09T07:14:23.080Z,22.27
2023-02-09T07:15:23.080Z,22.66
2023-02-09T07:16:23.108Z,23.06
2023-02-09T07:17:23.054Z,22.27
2023-02-09T07:18:23.040Z,22.66
2023-02-09T07:19:23.036Z,23.06
2023-02-09T07:20:23.044Z,22.47
2023-02-09T07:21:23.116Z,22.07
2023-02-09T07:22:23.083Z,22.86
2023-02-09T07:23:22.990Z,22.27
2023-02-09T07:24:22.983Z,23.06
2023-02-09T07:25:22.994Z,23.86
2023-02-09T07:26:22.967Z,21.27
2023-02-09T07:27:22.947Z,22.27
2023-02-09T07:28:23.009Z,22.27
2023-02-09T07:29:22.944Z,22.66
2023-02-09T07:30:22.926Z,21.47
2023-02-09T07:31:23.024Z,22.47
2023-02-09T07:32:22.905Z,22.66
2023-02-09T07:33:22.899Z,22.66
2023-02-09T07:34:22.902Z,23.26
2023-02-09T07:35:22.888Z,22.27
2023-02-09T07:36:22.881Z,23.26
2023-02-09T07:37:22.847Z,22.27
2023-02-09T07:38:22.839Z,22.47
2023-02-09T07:39:22.831Z,21.87
2023-02-09T07:40:22.836Z,22.07
2023-02-09T07:41:22.853Z,23.66
2023-02-09T07:42:23.477Z,23.66
2023-02-09T07:43:22.867Z,22.66
2023-02-09T07:44:22.771Z,22.86
2023-02-09T07:45:22.770Z,22.07
2023-02-09T07:46:23.310Z,22.27
2023-02-09T07:47:22.752Z,22.66
2023-02-09T07:48:22.736Z,22.66
2023-02-09T07:49:22.720Z,21.67
2023-02-09T07:50:22.718Z,22.07
2023-02-09T07:51:22.708Z,21.67
2023-02-09T07:52:22.725Z,21.67
2023-02-09T07:53:22.714Z,21.27
2023-02-09T07:54:22.688Z,22.07
2023-02-09T07:55:22.661Z,22.47
2023-02-09T07:56:22.674Z,21.47
2023-02-09T07:57:22.686Z,21.47
2023-02-09T07:58:22.675Z,22.27
2023-02-09T07:59:22.703Z,22.07
2023-02-09T08:00:22.685Z,22.47
2023-02-09T08:01:22.642Z,21.47
2023-02-09T08:02:22.711Z,21.47
2023-02-09T08:03:22.822Z,22.47
2023-02-09T08:04:22.712Z,22.27
2023-02-09T08:05:22.692Z,21.07
2023-02-09T08:06:26.003Z,22.07
2023-02-09T08:07:23.544Z,21.27
2023-02-09T08:08:22.547Z,21.27
2023-02-09T08:09:22.553Z,21.87
2023-02-09T08:10:22.559Z,21.87
2023-02-09T08:11:22.701Z,21.87
2023-02-09T08:12:22.521Z,20.08
2023-02-09T08:13:22.483Z,21.07
2023-02-09T08:14:22.475Z,21.47
2023-02-09T08:15:22.590Z,21.67
2023-02-09T08:16:22.615Z,22.47
2023-02-09T08:17:22.458Z,22.07
2023-02-09T08:18:22.446Z,21.47
2023-02-09T08:19:22.433Z,20.08
2023-02-09T08:20:22.468Z,22.66
2023-02-09T08:21:22.414Z,22.27
2023-02-09T08:22:22.406Z,16.50
2023-02-09T08:23:22.425Z,21.87
2023-02-09T08:24:22.394Z,21.87
2023-02-09T08:25:22.382Z,20.28
2023-02-09T08:26:22.367Z,21.27
2023-02-09T08:27:22.344Z,22.07
2023-02-09T08:28:31.870Z,21.27
2023-02-09T08:29:23.331Z,22.27
2023-02-09T08:30:22.326Z,21.67
2023-02-09T08:31:22.560Z,21.87
2023-02-09T08:32:22.292Z,21.67
2023-02-09T08:33:22.284Z,21.27
2023-02-09T08:34:22.271Z,21.67
2023-02-09T08:35:22.278Z,21.67
2023-02-09T08:36:22.272Z,22.07
2023-02-09T08:37:22.247Z,22.86
2023-02-09T08:38:22.272Z,22.47
2023-02-09T08:39:22.222Z,21.87
2023-02-09T08:40:22.227Z,20.68
2023-02-09T08:41:22.210Z,21.67
2023-02-09T08:42:22.221Z,23.46
2023-02-09T08:43:22.184Z,22.07
2023-02-09T08:44:22.212Z,22.86
2023-02-09T08:45:22.266Z,21.67
2023-02-09T08:46:22.276Z,21.47
2023-02-09T08:47:22.151Z,21.47
2023-02-09T08:48:22.165Z,21.87
2023-02-09T08:49:22.153Z,22.07
2023-02-09T08:50:22.120Z,22.07
2023-02-09T08:51:22.111Z,21.47
2023-02-09T08:52:22.134Z,21.87
2023-02-09T08:53:22.121Z,22.66
2023-02-09T08:54:22.251Z,21.47
2023-02-09T08:55:22.134Z,21.47
2023-02-09T08:56:22.203Z,22.86
2023-02-09T08:57:24.221Z,21.47
2023-02-09T08:58:23.055Z,20.68
2023-02-09T08:59:22.183Z,21.07
2023-02-09T09:00:22.026Z,20.28
2023-02-09T09:01:22.037Z,22.47
2023-02-09T09:02:22.039Z,21.47
2023-02-09T09:03:22.055Z,22.27
2023-02-09T09:04:21.976Z,22.07
2023-02-09T09:05:21.961Z,21.47
2023-02-09T09:06:21.969Z,22.07
2023-02-09T09:07:21.962Z,22.27
2023-02-09T09:08:21.954Z,21.67
2023-02-09T09:09:21.919Z,21.87
2023-02-09T09:10:21.931Z,21.87
2023-02-09T09:11:21.904Z,22.66
2023-02-09T09:12:21.919Z,21.87
2023-02-09T09:13:21.880Z,21.67
2023-02-09T09:14:21.919Z,21.67
2023-02-09T09:15:21.859Z,20.68
2023-02-09T09:16:21.962Z,21.27
2023-02-09T09:17:21.849Z,21.27
2023-02-09T09:18:21.839Z,21.67
2023-02-09T09:19:21.819Z,21.87
2023-02-09T09:20:21.880Z,21.67
2023-02-09T09:21:21.797Z,22.47
2023-02-09T09:22:21.805Z,20.48
2023-02-09T09:23:21.788Z,22.07
2023-02-09T09:24:21.770Z,21.67
2023-02-09T09:25:21.775Z,21.67
2023-02-09T09:26:21.775Z,20.87
2023-02-09T09:27:21.748Z,23.26
2023-02-09T09:28:21.821Z,21.27
2023-02-09T09:29:21.736Z,21.87
2023-02-09T09:30:21.902Z,22.27
2023-02-09T09:31:21.793Z,21.27
2023-02-09T09:32:21.852Z,22.27
2023-02-09T09:33:21.697Z,21.67
2023-02-09T09:34:21.666Z,21.07
2023-02-09T09:35:21.652Z,20.68
2023-02-09T09:36:21.646Z,21.07
2023-02-09T09:37:21.647Z,21.67
2023-02-09T09:38:21.626Z,20.28
2023-02-09T09:39:21.621Z,21.27
2023-02-09T09:40:21.606Z,20.28
2023-02-09T09:41:21.593Z,22.47
2023-02-09T09:42:21.633Z,20.68
2023-02-09T09:43:21.594Z,21.47
2023-02-09T09:44:21.587Z,22.07
2023-02-09T09:45:21.559Z,20.87
2023-02-09T09:46:21.632Z,21.47
2023-02-09T09:47:21.536Z,21.67
2023-02-09T09:48:21.517Z,20.28
2023-02-09T09:49:21.568Z,20.87
2023-02-09T09:50:21.508Z,21.47
2023-02-09T09:51:21.510Z,21.67
2023-02-09T09:52:21.491Z,21.07
2023-02-09T09:53:21.573Z,21.67
2023-02-09T09:54:21.460Z,21.07
2023-02-09T09:55:21.450Z,21.87
2023-02-09T09:56:21.438Z,21.87
2023-02-09T09:57:21.474Z,19.68
2023-02-09T09:58:21.411Z,21.67
2023-02-09T09:59:21.412Z,22.27
2023-02-09T10:00:21.405Z,20.87
2023-02-09T10:01:21.454Z,21.07
2023-02-09T10:02:21.386Z,22.07
2023-02-09T10:03:21.362Z,21.27
2023-02-09T10:04:21.374Z,21.47
2023-02-09T10:05:21.366Z,21.27
2023-02-09T10:06:21.335Z,21.87
2023-02-09T10:07:23.422Z,21.87
2023-02-09T10:08:21.320Z,21.47
2023-02-09T10:09:21.289Z,22.27
2023-02-09T10:10:21.305Z,21.67
2023-02-09T10:11:21.270Z,21.27
2023-02-09T10:12:21.298Z,21.27
2023-02-09T10:13:21.272Z,20.48
2023-02-09T10:14:23.471Z,21.07
2023-02-09T10:15:21.227Z,21.27
2023-02-09T10:16:21.275Z,21.27
2023-02-09T10:17:21.256Z,21.07
2023-02-09T10:18:21.228Z,21.87
2023-02-09T10:19:21.197Z,20.87
2023-02-09T10:20:21.186Z,20.87
2023-02-09T10:21:21.182Z,21.27
2023-02-09T10:22:21.322Z,21.27
2023-02-09T10:23:21.175Z,20.68
2023-02-09T10:24:21.151Z,20.08
2023-02-09T10:25:21.143Z,21.67
2023-02-09T10:26:21.127Z,21.87
2023-02-09T10:27:21.130Z,22.07
2023-02-09T10:28:21.268Z,21.07
2023-02-09T10:29:21.290Z,21.67
2023-02-09T10:30:21.114Z,20.87
2023-02-09T10:31:21.302Z,20.87
2023-02-09T10:32:21.057Z,21.47
2023-02-09T10:33:21.099Z,21.27
2023-02-09T10:34:21.062Z,21.87
2023-02-09T10:35:21.033Z,20.08
2023-02-09T10:36:21.139Z,21.47
2023-02-09T10:37:21.060Z,20.87
2023-02-09T10:38:21.061Z,20.87
2023-02-09T10:39:21.007Z,20.87
2023-02-09T10:40:20.984Z,20.68
2023-02-09T10:41:21.011Z,21.27
2023-02-09T10:42:20.974Z,21.87
2023-02-09T10:43:20.970Z,21.47
2023-02-09T10:44:20.985Z,20.68
2023-02-09T10:45:20.928Z,21.07
2023-02-09T10:46:20.997Z,21.27
2023-02-09T10:47:20.927Z,21.87
2023-02-09T10:48:21.007Z,20.08
2023-02-09T10:49:20.911Z,21.27
2023-02-09T10:50:20.941Z,20.48
2023-02-09T10:51:20.866Z,21.47
2023-02-09T10:52:20.849Z,21.27
2023-02-09T10:53:20.922Z,22.66
2023-02-09T10:54:20.841Z,20.87
2023-02-09T10:55:20.859Z,21.27
2023-02-09T10:56:20.813Z,20.87
2023-02-09T10:57:20.820Z,21.07
2023-02-09T10:58:20.889Z,21.07
2023-02-09T10:59:20.821Z,21.87
2023-02-09T11:00:20.931Z,21.07
2023-02-09T11:01:20.786Z,20.68
2023-02-09T11:02:20.748Z,21.47
2023-02-09T11:03:20.862Z,20.48
2023-02-09T11:04:20.913Z,21.27
2023-02-09T11:05:20.706Z,21.07
2023-02-09T11:06:20.738Z,22.07
2023-02-09T11:07:20.717Z,21.27
2023-02-09T11:08:20.885Z,21.07
2023-02-09T11:09:20.690Z,21.07
2023-02-09T11:10:20.711Z,21.47
2023-02-09T11:11:20.758Z,21.27
2023-02-09T11:12:20.719Z,21.47
2023-02-09T11:13:20.617Z,21.47
2023-02-09T11:14:20.621Z,20.87
2023-02-09T11:15:20.629Z,20.87
2023-02-09T11:16:20.767Z,21.47
2023-02-09T11:17:20.608Z,20.48
2023-02-09T11:18:21.339Z,21.47
2023-02-09T11:19:20.558Z,20.87
2023-02-09T11:20:20.757Z,22.66
2023-02-09T11:21:20.538Z,22.07
2023-02-09T11:22:20.540Z,22.47
2023-02-09T11:23:20.559Z,21.67
2023-02-09T11:24:20.534Z,21.47
2023-02-09T11:25:20.529Z,20.68
2023-02-09T11:26:20.614Z,21.47
2023-02-09T11:27:21.810Z,22.47
2023-02-09T11:28:20.529Z,21.07
2023-02-09T11:29:20.509Z,22.07
2023-02-09T11:30:20.750Z,19.28
2023-02-09T11:31:20.667Z,20.68
2023-02-09T11:32:20.438Z,21.27
2023-02-09T11:33:20.418Z,21.47
2023-02-09T11:34:20.512Z,21.27
2023-02-09T11:35:20.388Z,20.48
2023-02-09T11:36:20.387Z,22.86
2023-02-09T11:37:20.376Z,21.27
2023-02-09T11:38:20.365Z,19.88
2023-02-09T11:39:20.382Z,21.27
2023-02-09T11:40:20.405Z,20.87
2023-02-09T11:41:20.358Z,21.27
2023-02-09T11:42:20.317Z,20.87
2023-02-09T11:43:20.326Z,20.08
2023-02-09T11:44:20.336Z,20.68
2023-02-09T11:45:20.298Z,20.48
2023-02-09T11:46:20.338Z,22.07
2023-02-09T11:47:20.286Z,22.27
2023-02-09T11:48:20.258Z,23.86
2023-02-09T11:49:20.464Z,22.27
2023-02-09T11:50:20.245Z,21.87
2023-02-09T11:51:20.274Z,21.47
2023-02-09T11:52:20.230Z,21.87
2023-02-09T11:53:20.236Z,21.27
2023-02-09T11:54:20.219Z,22.86
2023-02-09T11:55:20.334Z,21.47
2023-02-09T11:56:20.184Z,21.27
2023-02-09T11:57:20.172Z,21.47
2023-02-09T11:58:20.154Z,20.48
2023-02-09T11:59:20.174Z,21.07
2023-02-09T12:00:20.151Z,21.27
2023-02-09T12:01:20.501Z,21.67
2023-02-09T12:02:21.690Z,21.87
2023-02-09T12:03:20.123Z,20.68
2023-02-09T12:04:20.107Z,21.47
2023-02-09T12:05:20.083Z,20.48
2023-02-09T12:06:20.107Z,21.87
2023-02-09T12:07:20.060Z,20.87
2023-02-09T12:08:20.043Z,22.07
2023-02-09T12:09:20.048Z,21.47
2023-02-09T12:10:20.223Z,21.27
2023-02-09T12:11:20.127Z,20.48
2023-02-09T12:12:20.002Z,22.07
2023-02-09T12:13:20.012Z,20.68
2023-02-09T12:14:20.014Z,20.87
2023-02-09T12:15:19.981Z,20.87
2023-02-09T12:16:20.055Z,20.48
2023-02-09T12:17:19.963Z,21.07
2023-02-09T12:18:19.933Z,19.88
2023-02-09T12:19:19.942Z,21.07
2023-02-09T12:20:19.939Z,21.67
2023-02-09T12:21:19.908Z,21.27
2023-02-09T12:22:19.893Z,21.27
2023-02-09T12:23:19.915Z,21.47
2023-02-09T12:24:19.887Z,21.47
2023-02-09T12:25:19.874Z,21.67
2023-02-09T12:26:19.843Z,20.48
2023-02-09T12:27:19.849Z,21.27
2023-02-09T12:28:19.908Z,20.87
2023-02-09T12:29:19.860Z,21.27
2023-02-09T12:30:19.819Z,21.87
2023-02-09T12:31:19.861Z,21.27
2023-02-09T12:32:19.854Z,20.68
2023-02-09T12:33:19.803Z,20.48
2023-02-09T12:34:19.768Z,22.27
2023-02-09T12:35:19.828Z,20.87
2023-02-09T12:36:19.739Z,21.47
2023-02-09T12:37:19.787Z,21.07
2023-02-09T12:38:19.769Z,18.69
2023-02-09T12:39:23.896Z,21.07
2023-02-09T12:40:19.719Z,21.87
2023-02-09T12:41:19.699Z,19.88
2023-02-09T12:42:19.720Z,20.87
2023-02-09T12:43:19.680Z,21.47
2023-02-09T12:44:19.664Z,21.27
2023-02-09T12:45:19.678Z,21.87
2023-02-09T12:46:19.691Z,20.28
2023-02-09T12:47:19.628Z,20.68
2023-02-09T12:48:19.614Z,20.48
2023-02-09T12:49:19.631Z,21.27
2023-02-09T12:50:19.615Z,20.87
2023-02-09T12:51:19.605Z,20.68
2023-02-09T12:52:19.565Z,20.08